Estación de Casablanca

Ultimos registro cada 15 minutos 58
Estación Fecha / Hora Temperatura Humedad Lluvia Velocidad Dirección Radiación Presion
58 Casablanca 02-05-2026 14:15 24,9 47,9 0 1 286 530,6 984,9
57 Casablanca 02-05-2026 14:00 24,9 47,8 0 1 279 553,1 985,2
56 Casablanca 02-05-2026 13:45 24,8 49,6 0 1,5 268 570,6 985,3
55 Casablanca 02-05-2026 13:30 24,5 51,9 0 1,5 279 583,1 985,4
54 Casablanca 02-05-2026 13:15 24,5 52,4 0 1 279 329,4 985,2
53 Casablanca 02-05-2026 13:00 24,7 52,7 0 1,5 271 596,9 985,3
52 Casablanca 02-05-2026 12:45 25,1 50,6 0 1 282 603,1 985,2
51 Casablanca 02-05-2026 12:30 27,3 42,1 0 0,5 263 603,1 985,4
50 Casablanca 02-05-2026 12:15 26,5 36 0 0 128 599,4 985,6
49 Casablanca 02-05-2026 12:00 26,3 37,2 0 0 100 596,9 985,7
48 Casablanca 02-05-2026 11:45 25,2 44,5 0 0 114 580,6 985,9
47 Casablanca 02-05-2026 11:30 22,9 50,7 0 0 110 563,1 986
46 Casablanca 02-05-2026 11:15 22,2 53,9 0 0 93 541,9 986
45 Casablanca 02-05-2026 11:00 21,6 55,2 0 0 93 520,6 986,2
44 Casablanca 02-05-2026 10:45 20,1 59,4 0 0 338 493,1 986,4
43 Casablanca 02-05-2026 10:30 18,4 63,7 0 0 324 465,6 986,7
42 Casablanca 02-05-2026 10:15 16,1 71,5 0 0 307 431,9 987
41 Casablanca 02-05-2026 10:00 14,3 75,2 0 0 236 395,6 987,1
40 Casablanca 02-05-2026 09:45 12,2 82,2 0 0 234 360,6 987,1
39 Casablanca 02-05-2026 09:30 10,5 86,7 0 0 233 321,9 987,2
38 Casablanca 02-05-2026 09:15 8,9 94,7 0 0 229 279,4 987,2
37 Casablanca 02-05-2026 09:00 7,2 98 0 0 212 183,1 987,2
36 Casablanca 02-05-2026 08:45 6,1 98,6 0 0 212 196,9 987,2
35 Casablanca 02-05-2026 08:30 4,9 99,8 0 0 211 154,4 987,2
34 Casablanca 02-05-2026 08:15 4,9 100 0 0 209 34,4 987,2
33 Casablanca 02-05-2026 08:00 4,2 100 0 0 209 66,9 987,2
32 Casablanca 02-05-2026 07:45 3,4 100 0 0 209 31,9 987,3
31 Casablanca 02-05-2026 07:30 3,2 100 0 0 209 4,4 987,4
30 Casablanca 02-05-2026 07:15 3 100 0 0 209 0,6 987,5
29 Casablanca 02-05-2026 07:00 2,1 100 0 0 220 0,6 987,4
28 Casablanca 02-05-2026 06:45 1,2 100 0 0 233 0,6 987,4
27 Casablanca 02-05-2026 06:30 2 100 0 0 233 0,6 987,4
26 Casablanca 02-05-2026 06:15 1,7 100 0 0 233 0,6 987,4
25 Casablanca 02-05-2026 06:00 2 100 0 0 233 0,6 987,2
24 Casablanca 02-05-2026 05:45 1,6 99,8 0 0 233 0,6 987,3
23 Casablanca 02-05-2026 05:30 3,1 100 0 0 227 0,6 987,3
22 Casablanca 02-05-2026 05:15 3 100 0 0 219 0,6 987,2
21 Casablanca 02-05-2026 05:00 2,1 99,5 0 0 219 0,6 987,3
20 Casablanca 02-05-2026 04:45 2,8 99,8 0 0 218 0,6 987,2
19 Casablanca 02-05-2026 04:30 1,6 99,2 0 0 216 0,6 987,5
18 Casablanca 02-05-2026 04:15 1,9 99,3 0 0 216 0,6 987,5
17 Casablanca 02-05-2026 04:00 2,5 98,8 0 0 216 0,6 987,7
16 Casablanca 02-05-2026 03:45 3,1 99,2 0 0 216 0,6 987,7
15 Casablanca 02-05-2026 03:30 3 99,2 0 0 216 0,6 987,9
14 Casablanca 02-05-2026 03:15 3,3 98,9 0 0 216 0,6 988,1
13 Casablanca 02-05-2026 03:00 3,3 98,7 0 0 216 0,6 988,2
12 Casablanca 02-05-2026 02:45 3,2 98,4 0 0 216 0,6 988,3
11 Casablanca 02-05-2026 02:30 2,9 97,8 0 0 216 0,6 988,7
10 Casablanca 02-05-2026 02:15 3,5 97,9 0 0 216 0,6 988,8
9 Casablanca 02-05-2026 02:00 3,9 97,7 0 0 216 0,6 989
8 Casablanca 02-05-2026 01:45 3,6 97,4 0 0 216 0,6 989,2
7 Casablanca 02-05-2026 01:30 4,6 97,5 0 0 216 0,6 989,3
6 Casablanca 02-05-2026 01:15 4,5 97,3 0 0 216 0,6 989,4
5 Casablanca 02-05-2026 01:00 4,3 96,7 0 0 216 0,6 989,4
4 Casablanca 02-05-2026 00:45 4,6 96,4 0 0 216 0,6 989,7
3 Casablanca 02-05-2026 00:30 4,8 96,4 0 0 216 0,6 989,7
2 Casablanca 02-05-2026 00:15 4,8 94,7 0 0 216 0,6 989,9
1 Casablanca 02-05-2026 00:00 6,7 95,7 0 0 216 0,6 990,2